Time;durP1;ratioP1;P1;durP2;ratioP2;P2;SDS_P1;SDS_P2;PMS_P1;PMS_P2;Temp;Humidity;BMP_temperature;BMP_pressure;BME280_temperature;BME280_humidity;BME280_pressure;Samples;Min_cycle;Max_cycle;Signal;HPM_P1;HPM_P2
2023/03/01 00:01:48;;;;;;;;;13.25;13.25;;;;;3.58;46.03;101005.38;5078362;27;45492;-68
2023/03/01 00:04:13;;;;;;;;;15.25;12.50;;;;;3.63;45.22;101012.50;5077382;28;45552;-68
2023/03/01 00:06:39;;;;;;;;;18.00;17.50;;;;;3.41;45.18;100995.59;5078256;27;46239;-68
2023/03/01 00:09:05;;;;;;;;;15.25;12.75;;;;;3.62;45.23;101023.63;5077935;28;45539;-69
2023/03/01 00:11:32;;;;;;;;;16.50;15.75;;;;;3.64;45.42;101020.38;5078351;27;45341;-69
2023/03/01 00:14:00;;;;;;;;;16.25;15.50;;;;;3.66;44.60;101018.78;5078572;27;45498;-69
2023/03/01 00:16:33;;;;;;;;;17.00;14.25;;;;;3.68;44.89;101012.03;5078370;27;45635;-68
2023/03/01 00:18:59;;;;;;;;;19.00;18.50;;;;;3.58;45.35;100995.03;5077016;28;45525;-70
2023/03/01 00:21:25;;;;;;;;;17.75;13.75;;;;;3.71;45.03;101004.47;5078248;27;45478;-70
2023/03/01 00:23:51;;;;;;;;;20.00;16.50;;;;;3.68;45.06;100999.09;5079124;28;45359;-70
2023/03/01 00:26:19;;;;;;;;;21.75;17.00;;;;;3.78;44.63;100993.72;5078157;27;46364;-71
2023/03/01 00:28:45;;;;;;;;;18.00;16.75;;;;;3.81;44.77;100987.84;5077124;28;45482;-70
2023/03/01 00:31:16;;;;;;;;;15.75;14.00;;;;;3.79;44.09;100985.16;5078566;27;45376;-70
2023/03/01 00:33:42;;;;;;;;;15.50;15.50;;;;;3.88;44.20;100997.81;5078708;28;45441;-69
2023/03/01 00:36:10;;;;;;;;;14.75;13.25;;;;;3.91;44.66;101000.56;5078580;27;46359;-71
2023/03/01 00:38:44;;;;;;;;;16.00;14.00;;;;;3.93;44.44;100990.34;5078761;27;45353;-70
2023/03/01 00:41:13;;;;;;;;;15.25;15.25;;;;;3.99;43.42;100991.59;5078810;27;45287;-69
2023/03/01 00:43:38;;;;;;;;;16.50;14.00;;;;;4.00;43.32;100966.66;5094607;27;45607;-69
2023/03/01 00:46:07;;;;;;;;;19.75;14.50;;;;;4.02;41.87;100978.00;5078199;27;46469;-70
2023/03/01 00:48:33;;;;;;;;;9.25;5.75;;;;;4.05;42.12;100970.41;5078549;27;45322;-69
2023/03/01 00:51:27;;;;;;;;;15.50;14.50;;;;;4.02;42.34;100966.75;5078811;27;45389;-70
2023/03/01 00:53:57;;;;;;;;;16.75;15.50;;;;;4.02;42.56;100967.66;5075611;28;45446;-69
2023/03/01 00:56:23;;;;;;;;;16.50;16.25;;;;;3.89;43.22;100949.59;5078461;28;46372;-69
2023/03/01 00:58:49;;;;;;;;;16.25;14.00;;;;;3.93;42.96;100946.38;5060144;28;45260;-70
2023/03/01 01:01:19;;;;;;;;;15.00;14.00;;;;;4.04;43.81;100960.91;5078141;28;45411;-69
2023/03/01 01:03:50;;;;;;;;;45.00;40.00;;;;;4.02;43.93;100948.66;5078511;28;45414;-69
2023/03/01 01:06:27;;;;;;;;;24.50;21.75;;;;;4.07;43.97;100949.84;5077505;28;46609;-70
2023/03/01 01:08:54;;;;;;;;;21.25;18.50;;;;;3.97;46.18;100926.00;5078126;28;45393;-70
2023/03/01 01:11:21;;;;;;;;;17.75;16.00;;;;;4.06;46.41;100942.88;5078089;28;45408;-70
2023/03/01 01:13:48;;;;;;;;;15.25;14.00;;;;;4.01;46.63;100934.84;5078321;28;45582;-70
2023/03/01 01:16:15;;;;;;;;;23.75;17.50;;;;;3.96;48.12;100936.25;5077982;28;45610;-70
2023/03/01 01:18:41;;;;;;;;;20.25;16.00;;;;;3.95;47.20;100931.88;5077966;28;45346;-70
2023/03/01 01:21:17;;;;;;;;;19.25;17.00;;;;;4.05;47.63;100935.94;5077996;28;45326;-69
2023/03/01 01:23:45;;;;;;;;;18.25;16.75;;;;;4.05;47.81;100941.97;5078151;28;45318;-70
2023/03/01 01:26:14;;;;;;;;;17.00;15.25;;;;;4.03;48.06;100943.59;5077630;27;46234;-69
2023/03/01 01:28:39;;;;;;;;;17.00;16.50;;;;;3.88;48.13;100917.69;5059663;28;45369;-70
2023/03/01 01:31:06;;;;;;;;;16.00;14.00;;;;;3.90;47.42;100917.75;5077891;28;45310;-70
2023/03/01 01:33:32;;;;;;;;;18.50;17.25;;;;;4.01;48.33;100940.00;5078303;28;45579;-69
2023/03/01 01:35:58;;;;;;;;;15.50;14.00;;;;;3.93;48.64;100929.19;5077601;28;45489;-70
2023/03/01 01:38:24;;;;;;;;;18.50;17.50;;;;;3.85;48.56;100937.25;5077706;28;45763;-69
2023/03/01 01:40:50;;;;;;;;;20.00;17.75;;;;;3.75;48.82;100931.50;5059396;28;45414;-71
2023/03/01 01:43:37;;;;;;;;;20.25;18.25;;;;;3.64;49.27;100921.28;5077854;28;45534;-70
2023/03/01 01:46:31;;;;;;;;;19.00;17.75;;;;;3.69;50.04;100946.63;5077807;28;46248;-69
2023/03/01 01:49:17;;;;;;;;;19.75;17.00;;;;;3.52;50.63;100936.88;5077510;28;45460;-69
2023/03/01 01:51:48;;;;;;;;;18.25;14.75;;;;;3.42;50.56;100929.34;5077391;28;45321;-69
2023/03/01 01:54:35;;;;;;;;;23.50;16.50;;;;;3.44;50.40;100945.84;5077502;28;45488;-69
2023/03/01 01:57:07;;;;;;;;;17.50;17.00;;;;;3.29;50.39;100925.09;5059502;28;45386;-69
2023/03/01 01:59:34;;;;;;;;;20.75;19.75;;;;;3.29;50.62;100923.38;5077694;28;45319;-70
2023/03/01 02:02:03;;;;;;;;;18.25;15.50;;;;;3.28;50.87;100926.78;5077526;28;45464;-70
2023/03/01 02:04:30;;;;;;;;;19.25;17.00;;;;;3.23;50.95;100919.53;5077671;28;45216;-69
2023/03/01 02:07:07;;;;;;;;;22.00;18.75;;;;;3.10;51.32;100900.63;5077580;28;45607;-69
2023/03/01 02:09:35;;;;;;;;;21.25;19.00;;;;;3.08;51.17;100894.47;5077660;28;45467;-70
2023/03/01 02:12:03;;;;;;;;;24.25;20.25;;;;;3.12;51.62;100908.47;5077037;28;45406;-69
2023/03/01 02:14:28;;;;;;;;;20.00;17.25;;;;;2.97;50.79;100904.09;5077535;28;45390;-70
2023/03/01 02:16:54;;;;;;;;;20.50;18.00;;;;;2.87;50.23;100901.72;5061146;28;46933;-69
2023/03/01 02:19:40;;;;;;;;;19.75;18.50;;;;;2.70;51.59;100895.41;5080910;28;45259;-70
2023/03/01 02:22:23;;;;;;;;;16.25;15.00;;;;;2.74;51.96;100917.16;5081211;28;45432;-70
2023/03/01 02:25:08;;;;;;;;;19.50;19.25;;;;;2.57;53.13;100911.75;5081097;28;45513;-70
2023/03/01 02:27:44;;;;;;;;;17.25;15.50;;;;;2.41;52.55;100887.41;5080907;28;46056;-69
2023/03/01 02:30:12;;;;;;;;;19.00;18.25;;;;;2.43;52.19;100902.22;5080615;28;45597;-69
2023/03/01 02:32:41;;;;;;;;;18.25;16.00;;;;;2.46;52.00;100899.81;5062713;28;45351;-69
2023/03/01 02:35:10;;;;;;;;;18.75;17.50;;;;;2.27;52.53;100876.13;5081348;28;45515;-70
2023/03/01 02:37:36;;;;;;;;;19.50;15.75;;;;;2.43;52.32;100898.72;5080821;28;46562;-70
2023/03/01 02:40:05;;;;;;;;;19.50;18.00;;;;;2.32;52.41;100873.09;5080654;28;45411;-69
2023/03/01 02:42:36;;;;;;;;;19.50;18.00;;;;;2.36;52.39;100892.25;5080450;28;45525;-70
2023/03/01 02:45:02;;;;;;;;;14.00;13.25;;;;;2.21;52.34;100868.00;5080644;28;45255;-69
2023/03/01 02:47:27;;;;;;;;;16.00;15.00;;;;;2.11;52.83;100871.63;5080149;28;45356;-70
2023/03/01 02:49:53;;;;;;;;;21.25;18.25;;;;;2.02;52.15;100861.59;5080283;28;45567;-69
2023/03/01 02:52:45;;;;;;;;;18.25;15.25;;;;;1.91;53.18;100859.94;5080458;28;45351;-69
2023/03/01 02:55:13;;;;;;;;;15.50;15.50;;;;;1.98;53.55;100878.50;5080594;28;45370;-69
2023/03/01 02:57:42;;;;;;;;;15.75;15.00;;;;;1.92;53.27;100870.34;5079931;28;45595;-69
2023/03/01 03:00:18;;;;;;;;;15.00;15.00;;;;;1.83;53.58;100851.69;5080539;28;45287;-70
2023/03/01 03:02:45;;;;;;;;;16.50;15.50;;;;;1.87;53.89;100863.09;5080379;28;45501;-69
2023/03/01 03:05:21;;;;;;;;;18.50;17.00;;;;;1.82;54.68;100869.63;5080363;28;45314;-70
2023/03/01 03:07:48;;;;;;;;;16.25;15.00;;;;;1.67;54.58;100846.25;5079764;28;45655;-69
2023/03/01 03:10:19;;;;;;;;;17.00;17.00;;;;;1.50;54.13;100819.31;5061454;28;45356;-69
2023/03/01 03:12:50;;;;;;;;;15.50;15.50;;;;;1.58;55.56;100843.94;5080222;28;45523;-70
2023/03/01 03:15:15;;;;;;;;;19.75;13.50;;;;;1.56;55.92;100842.91;5080395;28;45453;-69
2023/03/01 03:17:42;;;;;;;;;18.00;15.00;;;;;1.51;56.06;100852.00;5079816;28;46254;-69
2023/03/01 03:20:10;;;;;;;;;21.00;18.00;;;;;1.42;56.86;100843.63;5080192;28;45361;-69
2023/03/01 03:22:40;;;;;;;;;17.50;17.50;;;;;1.34;56.47;100835.34;5080181;28;45461;-69
2023/03/01 03:25:10;;;;;;;;;14.50;14.00;;;;;1.31;56.63;100825.75;5080361;28;45516;-69
2023/03/01 03:27:37;;;;;;;;;15.25;14.75;;;;;1.26;56.97;100826.19;5077427;28;47176;-69
2023/03/01 03:30:08;;;;;;;;;15.75;14.50;;;;;1.11;56.83;100828.56;5079734;28;45434;-69
2023/03/01 03:32:38;;;;;;;;;19.75;18.00;;;;;1.07;57.00;100850.59;5079806;28;45517;-69
2023/03/01 03:35:09;;;;;;;;;23.00;18.25;;;;;0.90;57.41;100831.38;5080041;28;45378;-68
2023/03/01 03:40:25;;;;;;;;;23.00;19.75;;;;;0.93;57.57;100841.84;5079473;28;45251;-69
2023/03/01 03:42:50;;;;;;;;;21.00;16.25;;;;;0.90;57.61;100838.19;5079419;28;45410;-68
2023/03/01 03:45:17;;;;;;;;;23.00;19.50;;;;;0.88;58.27;100832.03;5079770;28;45307;-68
2023/03/01 03:47:43;;;;;;;;;17.25;16.50;;;;;0.70;58.51;100824.75;5079329;28;45389;-69
2023/03/01 03:50:11;;;;;;;;;23.00;16.50;;;;;0.57;57.75;100804.94;5079788;28;45289;-70
2023/03/01 03:52:37;;;;;;;;;21.75;16.50;;;;;0.62;58.05;100823.31;5079273;28;45283;-69
2023/03/01 03:55:03;;;;;;;;;25.50;21.75;;;;;0.48;58.37;100818.78;5061221;28;45501;-69
2023/03/01 03:57:29;;;;;;;;;23.00;21.25;;;;;0.51;58.68;100825.06;5079195;28;45418;-69
2023/03/01 03:59:54;;;;;;;;;29.50;24.00;;;;;0.49;58.44;100818.91;5061023;28;45549;-69
2023/03/01 04:02:21;;;;;;;;;27.00;23.00;;;;;0.27;58.13;100805.25;5060919;28;45546;-70
2023/03/01 04:04:50;;;;;;;;;17.50;16.50;;;;;0.34;56.87;100823.81;5079608;28;45374;-69
2023/03/01 04:07:16;;;;;;;;;16.75;14.25;;;;;0.27;56.67;100798.44;5079111;28;46493;-69
2023/03/01 04:09:43;;;;;;;;;15.25;14.00;;;;;0.29;56.59;100808.84;5079325;28;45393;-68
2023/03/01 04:12:09;;;;;;;;;17.00;14.00;;;;;0.28;56.60;100809.59;5079594;28;45450;-69
2023/03/01 04:14:35;;;;;;;;;17.00;16.25;;;;;0.15;56.74;100784.66;5079501;28;45479;-70
2023/03/01 04:17:00;;;;;;;;;22.00;17.75;;;;;0.30;57.17;100813.16;5078839;28;45435;-69
2023/03/01 04:19:26;;;;;;;;;20.00;17.00;;;;;0.32;57.21;100811.59;5078947;28;45346;-70
2023/03/01 04:21:53;;;;;;;;;17.00;16.50;;;;;0.35;57.50;100822.13;5079001;28;45245;-69
2023/03/01 04:24:19;;;;;;;;;18.00;16.50;;;;;-0.36;57.01;100711.50;5079263;28;45288;-69
2023/03/01 04:26:44;;;;;;;;;19.00;16.25;;;;;0.19;57.09;100805.56;5078934;28;45560;-69
2023/03/01 04:29:10;;;;;;;;;4.25;2.00;;;;;0.18;56.72;100818.31;5078990;28;45315;-69
2023/03/01 04:31:36;;;;;;;;;16.25;15.75;;;;;0.18;57.70;100818.31;5078355;28;45444;-69
2023/03/01 04:34:02;;;;;;;;;15.50;13.75;;;;;0.05;57.65;100803.63;5078952;28;45607;-69
2023/03/01 04:36:29;;;;;;;;;17.00;16.00;;;;;0.18;57.40;100818.31;5078629;28;46625;-69
2023/03/01 04:38:55;;;;;;;;;15.50;14.50;;;;;-0.42;57.31;100708.47;5078448;28;45480;-69
2023/03/01 04:41:23;;;;;;;;;15.50;11.00;;;;;0.14;57.21;100800.84;5078769;28;45287;-69
2023/03/01 04:43:49;;;;;;;;;18.50;14.00;;;;;0.19;56.63;100812.38;5060278;28;45463;-69
2023/03/01 04:46:18;;;;;;;;;12.50;12.50;;;;;0.26;56.60;100816.28;5060576;28;45619;-69
2023/03/01 04:48:45;;;;;;;;;31.50;27.00;;;;;0.27;57.66;100823.25;5060497;28;45425;-69
2023/03/01 04:51:13;;;;;;;;;37.75;34.75;;;;;0.21;57.82;100815.06;5061506;28;45569;-69
2023/03/01 04:53:39;;;;;;;;;18.00;16.50;;;;;0.16;57.64;100820.75;5078683;27;45406;-69
2023/03/01 04:56:06;;;;;;;;;12.50;10.25;;;;;0.05;58.56;100806.19;5078153;27;45457;-69
2023/03/01 04:58:32;;;;;;;;;16.75;16.00;;;;;0.06;57.98;100812.22;5077031;28;45512;-69
2023/03/01 05:00:58;;;;;;;;;13.00;12.50;;;;;0.12;57.93;100818.75;5078410;27;45392;-69
2023/03/01 05:03:24;;;;;;;;;16.50;16.25;;;;;0.08;58.85;100819.28;5078455;27;45295;-69
2023/03/01 05:05:52;;;;;;;;;17.00;16.25;;;;;-0.06;58.08;100787.41;5076784;28;45704;-69
2023/03/01 05:08:18;;;;;;;;;15.50;14.00;;;;;0.18;57.92;100810.59;5078176;27;45504;-69
2023/03/01 05:10:48;;;;;;;;;16.50;13.75;;;;;0.21;57.86;100797.97;5078593;27;45472;-70
2023/03/01 05:13:20;;;;;;;;;21.50;19.25;;;;;0.42;57.46;100808.06;5078466;27;45299;-68
2023/03/01 05:15:57;;;;;;;;;15.25;12.75;;;;;0.47;56.89;100794.78;5076934;28;46893;-69
2023/03/01 05:18:25;;;;;;;;;20.00;16.50;;;;;0.54;57.30;100797.03;5078130;27;45669;-68
2023/03/01 05:20:52;;;;;;;;;18.75;16.00;;;;;0.47;57.28;100807.63;5078119;27;45541;-69
2023/03/01 05:23:18;;;;;;;;;17.00;16.75;;;;;0.55;57.57;100790.19;5078718;28;45488;-68
2023/03/01 05:25:44;;;;;;;;;28.00;26.25;;;;;0.59;57.12;100785.38;5078025;27;46201;-68
2023/03/01 05:28:13;;;;;;;;;20.50;17.75;;;;;0.72;57.29;100794.91;5077930;28;45547;-68
2023/03/01 05:30:40;;;;;;;;;18.50;17.75;;;;;0.71;57.09;100787.97;5077967;27;45511;-68
2023/03/01 05:33:12;;;;;;;;;18.00;14.75;;;;;0.80;57.42;100785.19;5078244;27;45324;-69
2023/03/01 05:35:41;;;;;;;;;19.75;17.00;;;;;0.70;57.69;100775.03;5077716;27;45522;-69
2023/03/01 05:38:07;;;;;;;;;20.25;17.00;;;;;0.66;58.20;100780.72;5077571;27;45496;-68
2023/03/01 05:40:33;;;;;;;;;23.25;19.75;;;;;0.52;58.05;100757.47;5076317;28;45228;-68
2023/03/01 05:42:59;;;;;;;;;22.75;18.50;;;;;0.86;57.56;100798.50;5076557;28;45269;-68
2023/03/01 05:45:27;;;;;;;;;19.50;17.50;;;;;0.77;57.91;100778.13;5077622;27;46082;-68
2023/03/01 05:47:54;;;;;;;;;17.25;16.25;;;;;0.82;57.61;100793.00;5076267;28;45346;-68
2023/03/01 05:50:22;;;;;;;;;22.00;18.75;;;;;0.62;57.75;100763.25;5077114;28;45321;-68
2023/03/01 05:52:50;;;;;;;;;19.75;17.00;;;;;0.67;57.60;100780.81;5077928;27;45286;-68
2023/03/01 05:55:18;;;;;;;;;18.25;14.75;;;;;0.86;57.55;100807.88;5077224;28;45958;-68
2023/03/01 05:57:44;;;;;;;;;17.00;15.00;;;;;0.79;57.01;100785.97;5077494;28;45557;-68
2023/03/01 06:00:11;;;;;;;;;15.25;13.00;;;;;0.91;57.83;100801.38;5077720;28;45318;-68
2023/03/01 06:02:37;;;;;;;;;40.75;37.50;;;;;0.82;58.15;100786.19;5077645;28;45615;-68
2023/03/01 06:05:05;;;;;;;;;31.25;28.75;;;;;0.79;57.44;100780.81;5077280;28;45461;-68
2023/03/01 06:07:31;;;;;;;;;61.50;49.25;;;;;0.84;58.25;100787.19;5077152;28;45564;-69
2023/03/01 06:09:56;;;;;;;;;37.50;35.75;;;;;0.83;58.27;100784.50;5077461;28;45443;-68
2023/03/01 06:12:22;;;;;;;;;19.25;17.50;;;;;0.69;58.43;100780.94;5077536;28;45363;-68
2023/03/01 06:14:47;;;;;;;;;26.00;21.75;;;;;0.40;58.13;100754.00;5077160;28;45468;-68
2023/03/01 06:17:14;;;;;;;;;13.75;11.25;;;;;0.48;58.50;100778.59;5059105;28;45599;-69
2023/03/01 06:19:39;;;;;;;;;16.00;14.00;;;;;0.28;60.29;100777.09;5076053;28;45319;-68
2023/03/01 06:22:05;;;;;;;;;20.00;18.25;;;;;0.23;59.54;100775.84;5077308;28;45632;-69
2023/03/01 06:24:30;;;;;;;;;23.50;21.25;;;;;0.20;59.04;100762.81;5058866;28;46152;-69
2023/03/01 06:26:56;;;;;;;;;25.75;24.00;;;;;0.30;59.76;100798.69;5077166;28;45569;-69
2023/03/01 06:29:22;;;;;;;;;23.25;20.50;;;;;0.30;59.33;100783.25;5076954;28;45367;-69
2023/03/01 06:31:48;;;;;;;;;23.00;22.00;;;;;-0.16;60.06;100717.25;5077507;28;45416;-68
2023/03/01 06:34:14;;;;;;;;;18.50;17.00;;;;;0.21;60.01;100784.25;5068246;28;46687;-68
2023/03/01 06:36:40;;;;;;;;;16.00;13.25;;;;;0.12;60.22;100772.50;5048701;28;45401;-68
2023/03/01 06:39:06;;;;;;;;;47.50;44.00;;;;;0.25;59.87;100796.53;5065342;28;45519;-68
2023/03/01 06:41:32;;;;;;;;;35.25;29.25;;;;;0.25;60.02;100793.97;5047543;28;45406;-68
2023/03/01 06:43:58;;;;;;;;;31.25;26.00;;;;;0.07;59.66;100766.09;5066478;28;46281;-67
2023/03/01 06:46:24;;;;;;;;;24.00;17.75;;;;;0.04;59.66;100765.91;5062489;28;45505;-68
2023/03/01 06:48:50;;;;;;;;;40.00;37.25;;;;;0.21;59.67;100782.56;5066322;28;45296;-68
2023/03/01 06:51:15;;;;;;;;;34.25;28.50;;;;;0.22;59.39;100781.78;5053183;28;45372;-69
2023/03/01 06:53:41;;;;;;;;;30.25;29.25;;;;;0.18;59.41;100782.34;5074462;28;47163;-68
2023/03/01 06:56:06;;;;;;;;;25.50;23.50;;;;;0.17;60.17;100795.94;5075997;27;45478;-68
2023/03/01 06:58:32;;;;;;;;;25.50;23.00;;;;;0.08;60.33;100782.41;5075914;27;45172;-68
2023/03/01 07:00:57;;;;;;;;;33.25;26.25;;;;;-0.36;60.07;100708.03;5076142;27;45343;-69
2023/03/01 07:03:23;;;;;;;;;28.00;25.00;;;;;0.10;60.41;100792.03;5074124;28;46687;-69
2023/03/01 07:05:52;;;;;;;;;85.67;67.33;;;;;0.17;60.52;100791.69;5079557;28;45574;-68
2023/03/01 07:08:18;;;;;;;;;23.25;22.25;;;;;0.09;60.82;100799.63;5079353;27;45463;-68
2023/03/01 07:10:44;;;;;;;;;18.25;17.00;;;;;0.07;61.42;100796.94;5075726;28;45359;-68
2023/03/01 07:13:09;;;;;;;;;42.25;38.75;;;;;-0.55;62.16;100704.09;5079102;27;45598;-69
2023/03/01 07:15:35;;;;;;;;;42.75;35.00;;;;;0.09;62.22;100815.91;5079254;27;45421;-69
2023/03/01 07:18:00;;;;;;;;;34.75;29.00;;;;;0.03;62.43;100794.03;5094622;27;45344;-69
2023/03/01 07:20:26;;;;;;;;;67.00;55.00;;;;;-0.03;62.64;100795.34;5079128;28;45433;-69
2023/03/01 07:22:52;;;;;;;;;41.75;38.50;;;;;0.08;62.69;100821.84;5079015;27;45384;-69
2023/03/01 07:25:18;;;;;;;;;56.67;46.33;;;;;-0.03;61.75;100797.91;5078606;27;45265;-69
2023/03/01 07:27:43;;;;;;;;;32.25;26.25;;;;;0.06;61.75;100809.66;5079043;27;45181;-69
2023/03/01 07:30:10;;;;;;;;;71.33;55.67;;;;;0.01;61.64;100804.19;5078840;27;45523;-68
2023/03/01 07:32:36;;;;;;;;;74.00;59.00;;;;;0.00;62.69;100799.84;5078440;27;45302;-68
2023/03/01 07:35:01;;;;;;;;;84.00;67.33;;;;;0.10;61.32;100798.81;5078112;27;45379;-69
2023/03/01 07:37:27;;;;;;;;;104.00;82.00;;;;;0.13;60.97;100792.25;5079028;27;45328;-69
2023/03/01 07:39:52;;;;;;;;;47.00;42.00;;;;;0.21;60.79;100795.41;5079245;27;45634;-69
2023/03/01 07:42:18;;;;;;;;;52.75;44.00;;;;;0.44;60.87;100817.69;5078657;28;46141;-69
2023/03/01 07:44:43;;;;;;;;;34.00;31.00;;;;;0.53;60.74;100807.19;5078243;27;45562;-69
2023/03/01 07:47:09;;;;;;;;;31.75;30.75;;;;;-0.02;59.98;100670.38;5078843;27;45471;-69
2023/03/01 07:49:34;;;;;;;;;88.33;70.33;;;;;0.84;59.54;100794.91;5077508;28;45558;-68
2023/03/01 07:52:00;;;;;;;;;44.50;43.00;;;;;0.96;59.33;100803.50;5078574;28;45501;-68
2023/03/01 07:54:26;;;;;;;;;68.67;55.00;;;;;0.96;58.27;100782.94;5078958;27;45433;-68
2023/03/01 07:56:51;;;;;;;;;32.00;28.75;;;;;1.21;57.49;100797.53;5079714;27;45538;-69
2023/03/01 07:59:17;;;;;;;;;58.00;50.00;;;;;1.38;57.33;100809.06;5079282;27;45305;-68
2023/03/01 08:01:42;;;;;;;;;45.00;41.50;;;;;1.50;56.92;100806.44;5078892;27;46194;-68
2023/03/01 08:04:08;;;;;;;;;40.50;38.25;;;;;1.78;56.49;100814.41;5079014;27;45372;-68
2023/03/01 08:06:35;;;;;;;;;24.75;21.75;;;;;3.91;54.21;100800.66;5077838;28;45273;-68
2023/03/01 08:09:01;;;;;;;;;39.25;32.75;;;;;6.48;46.11;100797.66;5079273;27;45466;-68
2023/03/01 08:11:30;;;;;;;;;26.75;20.75;;;;;8.03;44.39;100772.88;5076863;28;45393;-69
2023/03/01 08:13:57;;;;;;;;;24.00;21.75;;;;;9.13;42.17;100763.59;5078168;27;45205;-69
2023/03/01 08:16:23;;;;;;;;;28.00;26.25;;;;;9.82;39.60;100780.06;5078557;27;45285;-69
2023/03/01 08:18:48;;;;;;;;;25.50;24.25;;;;;10.54;37.23;100762.66;5078268;28;45441;-69
2023/03/01 08:21:16;;;;;;;;;23.00;22.50;;;;;11.17;35.51;100762.88;5077788;27;45606;-69
2023/03/01 08:23:42;;;;;;;;;20.75;20.25;;;;;12.00;35.06;100765.34;5078147;27;45504;-69
2023/03/01 08:26:14;;;;;;;;;27.25;27.00;;;;;12.61;33.66;100745.97;5078236;27;45591;-70
2023/03/01 08:28:40;;;;;;;;;22.75;21.25;;;;;13.46;34.03;100751.47;5074487;28;45231;-70
2023/03/01 08:31:24;;;;;;;;;31.50;29.75;;;;;14.23;32.58;100741.63;5076437;28;47647;-69
2023/03/01 08:33:56;;;;;;;;;30.00;27.75;;;;;14.95;29.34;100747.22;5075480;28;45484;-69
2023/03/01 08:36:34;;;;;;;;;25.25;24.75;;;;;15.39;28.57;100746.97;5075665;28;45512;-69
2023/03/01 08:39:02;;;;;;;;;44.50;37.75;;;;;15.53;27.66;100711.19;5089063;27;45621;-69
2023/03/01 08:41:28;;;;;;;;;30.25;29.50;;;;;15.73;27.48;100729.00;5077885;27;46276;-71
2023/03/01 08:43:58;;;;;;;;;72.33;59.67;;;;;15.80;27.54;100722.97;5076293;28;45483;-72
2023/03/01 08:46:28;;;;;;;;;39.25;33.25;;;;;16.42;27.65;100737.66;5077682;27;45517;-72
2023/03/01 08:48:54;;;;;;;;;41.50;35.50;;;;;16.92;26.91;100710.81;5084980;27;45499;-72
2023/03/01 08:51:21;;;;;;;;;28.50;27.50;;;;;17.33;27.20;100727.75;5074454;27;46420;-72
2023/03/01 08:53:47;;;;;;;;;25.00;24.75;;;;;17.56;25.76;100723.47;5067024;28;45479;-72
2023/03/01 08:56:12;;;;;;;;;24.00;22.50;;;;;17.83;27.50;100721.81;5068421;28;45586;-72
2023/03/01 08:58:41;;;;;;;;;22.75;21.75;;;;;18.42;25.09;100710.50;5069085;28;45383;-72
2023/03/01 09:01:12;;;;;;;;;23.75;20.25;;;;;18.66;24.32;100720.19;5059713;28;46534;-71
2023/03/01 09:03:38;;;;;;;;;24.50;22.75;;;;;18.23;24.67;100646.13;5078234;28;45413;-72
2023/03/01 09:06:06;;;;;;;;;19.00;17.75;;;;;18.94;25.58;100714.00;5078209;28;45250;-72
2023/03/01 09:08:37;;;;;;;;;20.75;18.50;;;;;19.30;24.29;100704.19;5078303;28;45438;-71
2023/03/01 09:11:05;;;;;;;;;21.25;20.25;;;;;19.77;23.17;100713.75;5077961;28;46419;-71
2023/03/01 09:13:31;;;;;;;;;21.50;20.75;;;;;19.67;24.42;100694.34;5078257;28;45833;-71
2023/03/01 09:16:01;;;;;;;;;25.25;23.25;;;;;20.03;22.94;100692.38;5060120;28;45349;-72
2023/03/01 09:18:27;;;;;;;;;29.75;26.25;;;;;19.80;23.83;100696.06;5078571;28;45244;-72
2023/03/01 09:20:54;;;;;;;;;21.00;20.75;;;;;19.43;23.92;100705.94;5077613;28;45934;-72
2023/03/01 09:23:21;;;;;;;;;23.50;22.50;;;;;19.11;22.50;100703.38;5077721;28;45423;-71
2023/03/01 09:25:46;;;;;;;;;20.00;19.50;;;;;18.87;22.70;100703.41;5076991;28;45363;-71
2023/03/01 09:28:12;;;;;;;;;19.25;18.25;;;;;18.66;22.38;100695.47;5078043;28;45357;-71
2023/03/01 09:30:37;;;;;;;;;28.75;24.75;;;;;18.92;24.14;100702.53;5077700;28;46203;-71
2023/03/01 09:33:03;;;;;;;;;18.75;18.75;;;;;19.36;23.91;100698.88;5077719;28;45350;-72
2023/03/01 09:35:28;;;;;;;;;21.50;19.75;;;;;19.21;21.76;100703.34;5059293;28;45489;-72
2023/03/01 09:37:54;;;;;;;;;18.00;16.67;;;;;19.30;22.06;100698.91;5077430;28;45492;-72
2023/03/01 09:40:23;;;;;;;;;14.00;13.00;;;;;19.32;20.86;100710.38;5077215;28;45530;-72
2023/03/01 09:43:13;;;;;;;;;12.67;12.00;;;;;19.00;19.43;100703.41;5077501;28;45169;-71
2023/03/01 09:45:43;;;;;;;;;16.33;15.67;;;;;18.43;19.97;100691.09;5077575;28;45430;-72
2023/03/01 09:48:24;;;;;;;;;13.67;13.00;;;;;18.16;19.99;100701.63;5077455;28;45522;-72
2023/03/01 09:50:51;;;;;;;;;15.33;14.67;;;;;17.99;20.83;100698.97;5075739;28;45558;-72
2023/03/01 09:53:21;;;;;;;;;15.67;15.00;;;;;18.04;19.52;100684.00;5077287;28;45526;-71
2023/03/01 09:55:58;;;;;;;;;14.67;13.33;;;;;18.07;20.97;100699.88;5059150;28;45366;-71
2023/03/01 09:58:39;;;;;;;;;11.00;10.00;;;;;17.10;20.46;100710.91;5077562;28;45423;-72
2023/03/01 10:01:23;;;;;;;;;13.00;12.00;;;;;16.41;21.92;100713.03;5076992;28;45346;-72
2023/03/01 10:04:01;;;;;;;;;14.25;14.25;;;;;16.56;21.35;100703.47;5077246;28;45178;-72
2023/03/01 10:06:27;;;;;;;;;16.75;16.25;;;;;16.70;22.47;100693.91;5077246;28;45495;-71
2023/03/01 10:08:59;;;;;;;;;17.00;15.33;;;;;16.21;21.95;100696.13;5077261;28;45240;-72
2023/03/01 10:11:36;;;;;;;;;14.75;14.25;;;;;15.57;22.67;100698.94;5076968;28;46193;-71
2023/03/01 10:14:51;;;;;;;;;13.75;13.75;;;;;15.50;22.37;100706.78;5077093;28;45457;-71
2023/03/01 10:17:19;;;;;;;;;14.75;14.25;;;;;14.73;23.33;100702.19;5037884;28;45528;-71
2023/03/01 10:19:46;;;;;;;;;16.50;14.00;;;;;14.44;23.78;100706.94;5077119;28;45379;-71
2023/03/01 10:22:23;;;;;;;;;14.50;14.00;;;;;14.45;23.18;100700.84;5075119;28;45481;-71
2023/03/01 10:24:52;;;;;;;;;15.50;14.75;;;;;14.71;23.57;100686.38;5076861;28;45460;-71
2023/03/01 10:27:34;;;;;;;;;16.50;16.00;;;;;15.25;23.46;100684.50;5077057;28;45464;-71
2023/03/01 10:30:13;;;;;;;;;17.25;16.25;;;;;15.05;23.45;100691.25;5076964;28;45493;-71
2023/03/01 10:32:39;;;;;;;;;16.00;15.25;;;;;14.38;22.89;100670.91;5076525;28;45469;-71
2023/03/01 10:35:32;;;;;;;;;14.50;14.50;;;;;13.97;23.13;100704.38;5076839;28;45311;-71
2023/03/01 10:38:10;;;;;;;;;9.25;8.25;;;;;13.63;24.47;100673.09;5075970;28;45318;-71
2023/03/01 10:40:53;;;;;;;;;15.00;15.00;;;;;13.88;23.88;100689.31;5062232;28;45516;-71
2023/03/01 10:43:20;;;;;;;;;14.25;13.75;;;;;13.21;23.92;100692.31;5080115;28;46186;-71
2023/03/01 10:45:46;;;;;;;;;18.75;17.75;;;;;12.81;24.67;100717.66;5080196;28;45438;-71
2023/03/01 10:48:27;;;;;;;;;16.00;14.25;;;;;12.29;25.84;100703.25;5080364;28;45467;-71
2023/03/01 10:50:58;;;;;;;;;18.25;17.00;;;;;12.25;25.60;100707.53;5080190;28;45514;-71
2023/03/01 10:53:29;;;;;;;;;16.50;15.25;;;;;12.30;26.54;100698.06;5080089;28;45422;-71
2023/03/01 10:56:02;;;;;;;;;20.25;19.25;;;;;12.54;25.89;100696.91;5061778;28;45394;-71
2023/03/01 10:58:29;;;;;;;;;16.00;15.75;;;;;12.68;25.58;100699.84;5080295;28;45557;-71
2023/03/01 11:00:57;;;;;;;;;17.25;16.50;;;;;12.81;26.24;100693.16;5078720;28;45432;-71
2023/03/01 11:03:27;;;;;;;;;18.75;18.00;;;;;12.78;26.03;100695.72;5077563;28;45835;-71
2023/03/01 11:06:06;;;;;;;;;14.25;14.00;;;;;12.22;25.90;100676.03;5039344;28;45526;-70
2023/03/01 11:08:38;;;;;;;;;16.25;15.00;;;;;11.48;26.92;100705.44;5038143;28;45410;-71
2023/03/01 11:11:25;;;;;;;;;16.00;15.00;;;;;11.24;26.93;100691.63;5039738;28;45349;-71
2023/03/01 11:14:15;;;;;;;;;18.25;16.75;;;;;11.29;27.43;100695.25;5038533;28;45505;-71
2023/03/01 11:16:45;;;;;;;;;16.75;15.50;;;;;11.23;27.35;100695.97;5021172;28;45446;-71
2023/03/01 11:19:10;;;;;;;;;17.50;16.00;;;;;10.69;28.19;100696.94;5038985;28;45389;-71
2023/03/01 11:21:55;;;;;;;;;14.00;14.00;;;;;10.63;28.50;100701.97;5021565;28;45548;-71
2023/03/01 11:24:33;;;;;;;;;16.50;14.50;;;;;10.44;28.79;100683.91;5039143;28;45500;-71
2023/03/01 11:27:03;;;;;;;;;16.00;13.50;;;;;10.71;29.05;100694.38;5039399;28;45289;-71